createdAt,value
2023-03-07T00:02:24.030Z,3.17
2023-03-07T00:07:16.526Z,3.35
2023-03-07T00:09:43.164Z,3.17
2023-03-07T00:12:10.878Z,3.38
2023-03-07T00:14:37.622Z,3.53
2023-03-07T00:17:04.328Z,3.60
2023-03-07T00:19:31.030Z,3.05
2023-03-07T00:21:57.715Z,3.40
2023-03-07T00:24:24.396Z,3.13
2023-03-07T00:26:51.016Z,3.17
2023-03-07T00:29:17.673Z,3.80
2023-03-07T00:31:44.378Z,3.60
2023-03-07T00:34:11.077Z,3.45
2023-03-07T00:36:38.071Z,3.30
2023-03-07T00:39:04.855Z,3.50
2023-03-07T00:41:31.584Z,3.47
2023-03-07T00:43:58.267Z,3.47
2023-03-07T00:46:26.144Z,3.45
2023-03-07T00:48:53.276Z,3.40
2023-03-07T00:51:21.936Z,3.58
2023-03-07T00:53:49.432Z,3.45
2023-03-07T00:56:17.330Z,3.55
2023-03-07T00:58:45.202Z,3.08
2023-03-07T01:01:14.106Z,2.90
2023-03-07T01:03:41.980Z,3.45
2023-03-07T01:06:14.358Z,3.15
2023-03-07T01:08:41.482Z,3.75
2023-03-07T01:11:08.274Z,3.53
2023-03-07T01:13:35.839Z,2.90
2023-03-07T01:16:16.072Z,3.50
2023-03-07T01:18:44.345Z,3.30
2023-03-07T01:21:17.729Z,3.22
2023-03-07T01:23:45.126Z,3.67
2023-03-07T01:26:17.166Z,3.30
2023-03-07T01:28:44.590Z,2.95
2023-03-07T01:31:12.247Z,3.50
2023-03-07T01:33:40.999Z,3.75
2023-03-07T01:36:22.470Z,3.30
2023-03-07T01:38:49.817Z,3.15
2023-03-07T01:41:17.242Z,3.25
2023-03-07T01:43:45.777Z,2.90
2023-03-07T01:46:20.128Z,3.00
2023-03-07T01:48:54.556Z,3.15
2023-03-07T01:51:21.941Z,2.60
2023-03-07T01:53:53.290Z,3.25
2023-03-07T01:56:21.932Z,3.30
2023-03-07T01:58:49.317Z,3.05
2023-03-07T02:01:17.100Z,2.97
2023-03-07T02:03:58.341Z,2.95
2023-03-07T02:06:27.653Z,3.10
2023-03-07T02:08:56.691Z,2.97
2023-03-07T02:11:24.482Z,3.00
2023-03-07T02:13:52.591Z,3.00
2023-03-07T02:16:19.782Z,3.08
2023-03-07T02:18:49.276Z,2.65
2023-03-07T02:21:24.032Z,2.53
2023-03-07T02:24:00.934Z,2.90
2023-03-07T02:26:30.664Z,2.70
2023-03-07T02:29:00.097Z,2.83
2023-03-07T02:31:27.021Z,2.50
2023-03-07T02:33:53.891Z,3.15
2023-03-07T02:36:26.669Z,2.70
2023-03-07T02:39:06.808Z,2.40
2023-03-07T02:41:35.140Z,2.55
2023-03-07T02:44:07.365Z,2.17
2023-03-07T02:46:34.244Z,2.42
2023-03-07T02:49:00.980Z,2.55
2023-03-07T02:51:27.864Z,2.78
2023-03-07T02:53:54.557Z,2.47
2023-03-07T02:56:21.625Z,2.53
2023-03-07T02:58:48.341Z,2.65
2023-03-07T03:01:15.110Z,2.28
2023-03-07T03:03:41.819Z,2.38
2023-03-07T03:06:08.593Z,2.28
2023-03-07T03:08:35.335Z,2.30
2023-03-07T03:11:02.021Z,2.55
2023-03-07T03:13:29.255Z,2.17
2023-03-07T03:15:57.906Z,2.50
2023-03-07T03:18:27.734Z,2.60
2023-03-07T03:20:54.428Z,2.50
2023-03-07T03:23:21.344Z,2.20
2023-03-07T03:26:01.515Z,2.10
2023-03-07T03:28:31.389Z,2.00
2023-03-07T03:31:00.231Z,1.90
2023-03-07T03:33:29.230Z,1.80
2023-03-07T03:35:57.956Z,2.30
2023-03-07T03:38:26.497Z,1.90
2023-03-07T03:40:54.801Z,2.60
2023-03-07T03:43:21.585Z,2.35
2023-03-07T03:45:56.096Z,1.92
2023-03-07T03:48:24.362Z,1.63
2023-03-07T03:50:51.064Z,2.10
2023-03-07T03:53:17.795Z,1.98
2023-03-07T03:55:44.627Z,2.00
2023-03-07T03:58:11.327Z,2.03
2023-03-07T04:00:38.087Z,2.03
2023-03-07T04:03:04.931Z,1.90
2023-03-07T04:05:34.416Z,1.80
2023-03-07T04:08:01.218Z,1.90
2023-03-07T04:10:27.912Z,1.98
2023-03-07T04:12:54.636Z,2.25
2023-03-07T04:15:21.445Z,1.63
2023-03-07T04:17:48.163Z,1.88
2023-03-07T04:20:17.430Z,1.65
2023-03-07T04:22:45.621Z,1.70
2023-03-07T04:25:12.291Z,1.70
2023-03-07T04:27:38.980Z,1.98
2023-03-07T04:30:06.236Z,1.83
2023-03-07T04:32:33.271Z,1.70
2023-03-07T04:35:00.046Z,1.90
2023-03-07T04:37:26.902Z,1.80
2023-03-07T04:39:53.661Z,1.90
2023-03-07T04:42:20.456Z,1.80
2023-03-07T04:44:47.119Z,1.70
2023-03-07T04:47:13.804Z,1.55
2023-03-07T04:49:40.485Z,1.40
2023-03-07T04:52:07.890Z,1.88
2023-03-07T04:54:34.900Z,1.95
2023-03-07T04:57:03.832Z,1.90
2023-03-07T04:59:30.604Z,1.95
2023-03-07T05:01:57.407Z,1.80
2023-03-07T05:04:24.404Z,1.80
2023-03-07T05:06:51.125Z,1.70
2023-03-07T05:09:18.034Z,1.40
2023-03-07T05:11:45.145Z,1.70
2023-03-07T05:14:12.498Z,1.60
2023-03-07T05:16:39.229Z,1.67
2023-03-07T05:19:06.747Z,1.80
2023-03-07T05:21:33.989Z,1.77
2023-03-07T05:24:01.039Z,1.73
2023-03-07T05:26:28.679Z,1.88
2023-03-07T05:28:55.351Z,1.52
2023-03-07T05:31:22.064Z,1.60
2023-03-07T05:33:48.773Z,1.70
2023-03-07T05:36:15.923Z,1.92
2023-03-07T05:38:43.532Z,1.80
2023-03-07T05:41:10.337Z,1.77
2023-03-07T05:43:37.123Z,1.80
2023-03-07T05:46:04.127Z,1.70
2023-03-07T05:48:31.029Z,1.63
2023-03-07T05:51:01.227Z,1.88
2023-03-07T05:53:28.431Z,1.90
2023-03-07T05:55:55.632Z,2.13
2023-03-07T05:58:22.884Z,2.05
2023-03-07T06:00:49.890Z,1.63
2023-03-07T06:03:17.907Z,1.90
2023-03-07T06:05:44.611Z,1.90
2023-03-07T06:08:11.303Z,1.80
2023-03-07T06:10:40.074Z,1.90
2023-03-07T06:13:17.688Z,1.73
2023-03-07T06:15:44.526Z,1.90
2023-03-07T06:18:14.635Z,1.98
2023-03-07T06:20:41.329Z,1.90
2023-03-07T06:23:09.202Z,1.80
2023-03-07T06:25:37.992Z,2.10
2023-03-07T06:28:04.869Z,1.98
2023-03-07T06:30:31.652Z,2.13
2023-03-07T06:32:58.477Z,1.90
2023-03-07T06:35:25.202Z,2.08
2023-03-07T06:37:51.932Z,1.73
2023-03-07T06:40:18.759Z,1.95
2023-03-07T06:42:45.776Z,2.20
2023-03-07T06:45:12.899Z,1.90
2023-03-07T06:47:39.598Z,2.28
2023-03-07T06:50:08.469Z,2.00
2023-03-07T06:52:36.360Z,1.85
2023-03-07T06:55:04.476Z,1.88
2023-03-07T06:57:33.358Z,1.90
2023-03-07T07:00:02.225Z,2.15
2023-03-07T07:02:32.007Z,2.10
2023-03-07T07:05:01.061Z,2.17
2023-03-07T07:07:29.324Z,2.10
2023-03-07T07:09:56.118Z,2.22
2023-03-07T07:12:22.858Z,2.40
2023-03-07T07:14:49.868Z,2.45
2023-03-07T07:17:16.687Z,2.10
2023-03-07T07:19:43.455Z,2.13
2023-03-07T07:22:11.960Z,2.40
2023-03-07T07:24:39.223Z,2.50
2023-03-07T07:27:06.313Z,2.35
2023-03-07T07:29:33.241Z,2.15
2023-03-07T07:32:00.616Z,2.58
2023-03-07T07:34:28.154Z,1.58
2023-03-07T07:36:55.117Z,1.17
2023-03-07T07:39:21.863Z,1.13
2023-03-07T07:41:48.561Z,1.30
2023-03-07T07:44:16.852Z,1.20
2023-03-07T07:46:52.742Z,1.48
2023-03-07T07:49:19.420Z,1.40
2023-03-07T07:51:46.647Z,1.42
2023-03-07T07:54:13.431Z,1.70
2023-03-07T07:56:41.178Z,1.23
2023-03-07T07:59:07.917Z,1.40
2023-03-07T08:01:34.804Z,1.20
2023-03-07T08:04:01.479Z,1.08
2023-03-07T08:06:28.850Z,1.20
2023-03-07T08:08:56.343Z,1.40
2023-03-07T08:11:24.006Z,1.02
2023-03-07T08:13:50.730Z,0.90
2023-03-07T08:16:19.593Z,1.05
2023-03-07T08:18:55.777Z,1.00
2023-03-07T08:21:23.888Z,1.00
2023-03-07T08:23:50.781Z,1.00
2023-03-07T08:26:17.734Z,1.85
2023-03-07T08:28:44.924Z,1.40
2023-03-07T08:31:14.814Z,1.55
2023-03-07T08:33:42.009Z,2.25
2023-03-07T08:36:09.126Z,1.60
2023-03-07T08:38:35.943Z,2.10
2023-03-07T08:41:05.028Z,1.80
2023-03-07T08:43:33.339Z,1.77
2023-03-07T08:46:00.469Z,1.63
2023-03-07T08:48:27.999Z,1.60
2023-03-07T08:50:55.354Z,2.00
2023-03-07T08:53:22.876Z,1.95
2023-03-07T08:55:49.836Z,1.58
2023-03-07T08:58:16.552Z,2.05
2023-03-07T09:00:43.300Z,1.80
2023-03-07T09:03:10.250Z,1.80
2023-03-07T09:05:38.969Z,1.92
2023-03-07T09:08:07.026Z,1.90
2023-03-07T09:10:34.504Z,1.75
2023-03-07T09:13:01.403Z,2.00
2023-03-07T09:15:28.068Z,1.85
2023-03-07T09:17:54.812Z,1.90
2023-03-07T09:20:21.500Z,1.67
2023-03-07T09:22:48.388Z,2.15
2023-03-07T09:25:15.081Z,1.90
2023-03-07T09:27:42.261Z,2.05
2023-03-07T09:30:09.716Z,1.90
2023-03-07T09:32:36.707Z,1.75
2023-03-07T09:35:03.829Z,1.73
2023-03-07T09:37:30.520Z,1.52
2023-03-07T09:39:57.170Z,1.55
2023-03-07T09:42:40.279Z,1.63
2023-03-07T09:45:28.957Z,1.67
2023-03-07T09:48:18.081Z,1.75
2023-03-07T09:50:58.429Z,1.77
2023-03-07T09:53:41.265Z,1.95
2023-03-07T09:56:21.757Z,1.90
2023-03-07T09:58:55.125Z,1.65
2023-03-07T10:01:25.008Z,1.80
2023-03-07T10:04:14.506Z,1.55
2023-03-07T10:06:43.274Z,1.67
2023-03-07T10:09:18.617Z,1.88
2023-03-07T10:12:04.980Z,1.73
2023-03-07T10:14:58.043Z,1.75
2023-03-07T10:17:43.651Z,1.92
2023-03-07T10:20:45.424Z,1.87
2023-03-07T10:23:50.233Z,1.73
2023-03-07T10:26:46.592Z,1.70
2023-03-07T10:29:19.108Z,1.85
2023-03-07T10:31:55.177Z,1.83
2023-03-07T10:34:27.875Z,1.83
2023-03-07T10:37:20.477Z,1.95
2023-03-07T10:39:54.495Z,1.80
2023-03-07T10:42:27.180Z,1.90
2023-03-07T10:44:54.179Z,1.75
2023-03-07T10:47:26.104Z,1.55
2023-03-07T10:50:15.861Z,1.50
2023-03-07T10:52:53.763Z,1.85
2023-03-07T10:55:40.606Z,1.63
2023-03-07T10:58:19.766Z,1.83
2023-03-07T11:01:14.612Z,1.73
2023-03-07T11:03:57.591Z,3.05
2023-03-07T11:06:40.328Z,3.97
2023-03-07T11:09:30.475Z,4.35
2023-03-07T11:12:12.835Z,4.57
2023-03-07T11:15:17.760Z,4.93
2023-03-07T11:17:46.655Z,4.45
2023-03-07T11:20:23.499Z,4.15
2023-03-07T11:23:00.560Z,3.90
2023-03-07T11:25:27.277Z,3.63
2023-03-07T11:27:56.666Z,3.25
2023-03-07T11:30:34.669Z,3.90
2023-03-07T11:33:17.769Z,3.25
2023-03-07T11:36:21.936Z,3.63
2023-03-07T11:39:04.817Z,2.88
2023-03-07T11:41:40.213Z,3.10
2023-03-07T11:44:30.723Z,3.03
2023-03-07T11:47:16.195Z,2.75
2023-03-07T11:50:05.582Z,3.00
2023-03-07T11:52:46.200Z,2.88
2023-03-07T11:55:30.562Z,2.45
2023-03-07T11:58:15.152Z,2.42
2023-03-07T12:01:24.056Z,2.55
2023-03-07T12:04:15.671Z,2.28
2023-03-07T12:07:12.140Z,2.35
2023-03-07T12:09:52.307Z,2.40
2023-03-07T12:12:37.194Z,2.47
2023-03-07T12:15:25.636Z,2.13
2023-03-07T12:18:35.095Z,2.25
2023-03-07T12:21:16.041Z,2.00
2023-03-07T12:23:48.838Z,2.03
2023-03-07T12:26:31.341Z,2.08
2023-03-07T12:29:05.030Z,2.35
2023-03-07T12:31:37.625Z,2.28
2023-03-07T12:34:10.588Z,1.80
2023-03-07T12:36:43.232Z,2.33
2023-03-07T12:39:29.910Z,2.13
2023-03-07T12:44:32.298Z,2.20
2023-03-07T12:47:31.691Z,2.38
2023-03-07T12:50:20.424Z,2.05
2023-03-07T12:52:54.192Z,2.30
2023-03-07T12:55:26.759Z,2.35
2023-03-07T12:58:06.492Z,2.00
2023-03-07T13:00:39.686Z,2.00
2023-03-07T13:03:07.020Z,2.08
2023-03-07T13:05:36.931Z,2.13
2023-03-07T13:08:06.705Z,1.95
2023-03-07T13:10:33.692Z,2.05
2023-03-07T13:13:00.395Z,2.15
2023-03-07T13:15:38.926Z,1.95
2023-03-07T13:18:26.552Z,2.00
2023-03-07T13:21:34.992Z,2.40
2023-03-07T13:24:36.530Z,2.25
2023-03-07T13:27:30.011Z,2.35
2023-03-07T13:30:12.076Z,1.70
2023-03-07T13:32:51.157Z,2.45
2023-03-07T13:35:39.188Z,1.77
2023-03-07T13:38:24.054Z,2.10
2023-03-07T13:40:58.443Z,1.83
2023-03-07T13:43:27.897Z,1.83
2023-03-07T13:45:57.243Z,2.10
2023-03-07T13:48:27.036Z,1.92
2023-03-07T13:50:56.529Z,1.88
2023-03-07T13:53:36.540Z,1.88
2023-03-07T13:56:15.788Z,1.70
2023-03-07T13:59:14.735Z,1.90
2023-03-07T14:01:53.267Z,1.75
2023-03-07T14:04:40.493Z,2.22
2023-03-07T14:07:12.927Z,1.90
2023-03-07T14:09:43.589Z,1.83
2023-03-07T14:12:36.184Z,1.83
2023-03-07T14:15:29.273Z,1.80
2023-03-07T14:18:29.015Z,1.70
2023-03-07T14:21:06.375Z,1.80
2023-03-07T14:24:05.847Z,1.60
2023-03-07T14:26:39.083Z,1.98
2023-03-07T14:29:23.431Z,1.73
2023-03-07T14:31:56.870Z,1.85
2023-03-07T14:34:27.021Z,1.63
2023-03-07T14:36:53.675Z,1.67
2023-03-07T14:39:21.920Z,1.90
2023-03-07T14:42:15.029Z,1.98
2023-03-07T14:44:47.499Z,1.60
2023-03-07T14:47:23.308Z,1.60
2023-03-07T14:49:57.115Z,1.90
2023-03-07T14:52:31.260Z,1.58
2023-03-07T14:55:01.680Z,1.63
2023-03-07T14:57:33.714Z,1.70
2023-03-07T15:00:29.541Z,1.90
2023-03-07T15:03:00.000Z,1.70
2023-03-07T15:05:38.594Z,1.60
2023-03-07T15:08:18.752Z,1.88
2023-03-07T15:10:48.218Z,1.70
2023-03-07T15:13:30.235Z,1.48
2023-03-07T15:16:04.656Z,1.80
2023-03-07T15:18:37.625Z,1.60
2023-03-07T15:21:05.826Z,1.63
2023-03-07T15:23:33.011Z,1.70
2023-03-07T15:26:06.510Z,1.58
2023-03-07T15:28:37.687Z,1.70
2023-03-07T15:31:04.904Z,1.67
2023-03-07T15:33:33.100Z,1.73
2023-03-07T15:36:15.273Z,1.50
2023-03-07T15:38:53.169Z,1.75
2023-03-07T15:41:31.495Z,1.67
2023-03-07T15:44:04.270Z,1.60
2023-03-07T15:46:32.361Z,1.40
2023-03-07T15:48:59.338Z,1.60
2023-03-07T15:51:35.815Z,1.52
2023-03-07T15:54:18.380Z,1.48
2023-03-07T15:56:46.135Z,1.70
2023-03-07T15:59:42.279Z,1.65
2023-03-07T16:02:45.979Z,1.63
2023-03-07T16:05:22.884Z,1.55
2023-03-07T16:07:56.727Z,1.58
2023-03-07T16:10:29.909Z,1.60
2023-03-07T16:12:59.071Z,1.63
2023-03-07T16:15:26.745Z,1.85
2023-03-07T16:17:56.140Z,2.08
2023-03-07T16:20:28.618Z,2.10
2023-03-07T16:22:56.372Z,2.25
2023-03-07T16:25:26.467Z,1.67
2023-03-07T16:27:56.931Z,1.70
2023-03-07T16:30:26.217Z,1.80
2023-03-07T16:32:53.122Z,1.75
2023-03-07T16:35:25.658Z,1.60
2023-03-07T16:37:53.870Z,1.55
2023-03-07T16:40:21.216Z,1.73
2023-03-07T16:42:50.456Z,1.65
2023-03-07T16:45:28.145Z,1.50
2023-03-07T16:47:57.051Z,1.90
2023-03-07T16:50:26.866Z,1.48
2023-03-07T16:52:53.551Z,1.60
2023-03-07T16:55:20.640Z,1.60
2023-03-07T16:57:50.588Z,1.90
2023-03-07T17:00:20.639Z,1.67
2023-03-07T17:02:48.132Z,1.60
2023-03-07T17:05:17.316Z,1.90
2023-03-07T17:07:44.230Z,1.70
2023-03-07T17:10:12.086Z,1.63
2023-03-07T17:12:40.487Z,1.70
2023-03-07T17:15:11.439Z,2.10
2023-03-07T17:17:38.198Z,1.75
2023-03-07T17:20:06.148Z,1.80
2023-03-07T17:22:33.056Z,1.55
2023-03-07T17:25:01.085Z,1.83
2023-03-07T17:27:28.332Z,2.03
2023-03-07T17:29:55.374Z,1.80
2023-03-07T17:32:22.411Z,1.85
2023-03-07T17:34:49.263Z,1.80
2023-03-07T17:37:16.027Z,1.63
2023-03-07T17:39:43.561Z,1.70
2023-03-07T17:42:10.194Z,1.65
2023-03-07T17:44:37.140Z,2.00
2023-03-07T17:47:04.193Z,2.00
2023-03-07T17:49:36.562Z,1.95
2023-03-07T17:52:04.799Z,1.98
2023-03-07T17:54:32.546Z,2.00
2023-03-07T17:56:59.319Z,1.92
2023-03-07T17:59:26.250Z,1.60
2023-03-07T18:01:52.985Z,1.80
2023-03-07T18:04:19.686Z,1.80
2023-03-07T18:06:46.635Z,1.80
2023-03-07T18:09:15.181Z,1.70
2023-03-07T18:11:41.938Z,2.17
2023-03-07T18:14:08.611Z,2.22
2023-03-07T18:16:35.263Z,2.00
2023-03-07T18:19:04.706Z,2.25
2023-03-07T18:21:32.385Z,2.20
2023-03-07T18:23:59.035Z,2.20
2023-03-07T18:26:25.863Z,2.50
2023-03-07T18:28:53.734Z,2.30
2023-03-07T18:31:25.034Z,2.10
2023-03-07T18:33:53.001Z,2.10
2023-03-07T18:36:22.414Z,2.40
2023-03-07T18:38:49.839Z,2.20
2023-03-07T18:41:22.100Z,2.53
2023-03-07T18:43:48.829Z,2.15
2023-03-07T18:46:18.973Z,2.05
2023-03-07T18:48:46.521Z,2.08
2023-03-07T18:51:16.357Z,2.10
2023-03-07T18:53:43.355Z,2.58
2023-03-07T18:56:12.968Z,2.38
2023-03-07T18:58:40.228Z,2.22
2023-03-07T19:01:10.040Z,2.17
2023-03-07T19:03:36.762Z,1.77
2023-03-07T19:06:03.618Z,2.20
2023-03-07T19:08:30.292Z,2.25
2023-03-07T19:10:56.996Z,2.40
2023-03-07T19:13:23.636Z,2.10
2023-03-07T19:15:50.260Z,2.28
2023-03-07T19:18:16.886Z,2.08
2023-03-07T19:20:43.582Z,2.15
2023-03-07T19:23:10.249Z,2.55
2023-03-07T19:25:36.958Z,2.10
2023-03-07T19:28:03.628Z,2.40
2023-03-07T19:30:32.858Z,2.58
2023-03-07T19:32:59.610Z,2.05
2023-03-07T19:35:26.308Z,2.28
2023-03-07T19:37:52.936Z,2.70
2023-03-07T19:40:19.698Z,2.75
2023-03-07T19:42:47.627Z,2.47
2023-03-07T19:45:14.331Z,2.58
2023-03-07T19:47:41.029Z,2.70
2023-03-07T19:50:08.438Z,2.90
2023-03-07T19:52:35.149Z,2.30
2023-03-07T19:55:01.857Z,2.50
2023-03-07T19:57:28.535Z,2.53
2023-03-07T19:59:56.332Z,2.60
2023-03-07T20:02:23.377Z,2.55
2023-03-07T20:04:50.075Z,2.72
2023-03-07T20:07:16.718Z,2.67
2023-03-07T20:09:43.423Z,3.35
2023-03-07T20:12:10.261Z,2.38
2023-03-07T20:14:42.577Z,2.72
2023-03-07T20:17:11.016Z,3.03
2023-03-07T20:19:38.493Z,2.88
2023-03-07T20:22:05.769Z,2.92
2023-03-07T20:24:33.238Z,2.80
2023-03-07T20:27:00.323Z,2.70
2023-03-07T20:29:27.107Z,2.63
2023-03-07T20:31:54.636Z,2.78
2023-03-07T20:34:23.640Z,3.10
2023-03-07T20:36:51.638Z,2.78
2023-03-07T20:39:18.314Z,2.83
2023-03-07T20:41:45.018Z,2.85
2023-03-07T20:44:14.079Z,2.90
2023-03-07T20:46:41.449Z,2.88
2023-03-07T20:49:08.383Z,2.92
2023-03-07T20:51:36.297Z,3.00
2023-03-07T20:54:08.783Z,3.20
2023-03-07T20:56:37.260Z,3.03
2023-03-07T20:59:04.411Z,3.00
2023-03-07T21:01:32.469Z,2.83
2023-03-07T21:04:08.029Z,2.78
2023-03-07T21:06:35.931Z,2.90
2023-03-07T21:09:06.917Z,2.88
2023-03-07T21:11:35.070Z,2.80
2023-03-07T21:14:01.786Z,2.72
2023-03-07T21:16:29.915Z,3.45
2023-03-07T21:19:04.970Z,3.15
2023-03-07T21:21:32.811Z,2.80
2023-03-07T21:24:00.029Z,2.97
2023-03-07T21:26:29.255Z,2.90
2023-03-07T21:28:57.053Z,2.90
2023-03-07T21:31:29.617Z,2.88
2023-03-07T21:34:06.235Z,2.83
2023-03-07T21:36:34.092Z,3.15
2023-03-07T21:39:04.019Z,2.97
2023-03-07T21:41:30.878Z,3.05
2023-03-07T21:43:58.178Z,2.70
2023-03-07T21:46:25.888Z,2.50
2023-03-07T21:48:52.851Z,2.60
2023-03-07T21:51:19.979Z,2.78
2023-03-07T21:53:46.772Z,2.58
2023-03-07T21:56:17.078Z,2.95
2023-03-07T21:58:47.370Z,2.92
2023-03-07T22:01:24.339Z,3.10
2023-03-07T22:03:56.050Z,2.60
2023-03-07T22:06:23.952Z,2.80
2023-03-07T22:08:50.904Z,2.70
2023-03-07T22:11:17.547Z,2.88
2023-03-07T22:13:44.263Z,2.70
2023-03-07T22:16:17.308Z,3.08
2023-03-07T22:18:44.200Z,3.13
2023-03-07T22:21:17.227Z,2.88
2023-03-07T22:23:44.337Z,2.78
2023-03-07T22:26:11.906Z,2.72
2023-03-07T22:28:40.916Z,2.50
2023-03-07T22:31:10.214Z,2.90
2023-03-07T22:33:37.270Z,3.20
2023-03-07T22:36:06.588Z,2.72
2023-03-07T22:38:33.389Z,2.58
2023-03-07T22:41:01.997Z,2.83
2023-03-07T22:43:31.558Z,3.08
2023-03-07T22:45:58.325Z,2.72
2023-03-07T22:48:25.285Z,2.70
2023-03-07T22:50:52.304Z,3.08
2023-03-07T22:53:18.973Z,2.75
2023-03-07T22:55:45.889Z,2.90
2023-03-07T22:58:13.096Z,2.85
2023-03-07T23:00:41.132Z,2.92
2023-03-07T23:03:08.334Z,2.83
2023-03-07T23:05:35.514Z,2.92
2023-03-07T23:08:03.614Z,2.60
2023-03-07T23:10:30.957Z,2.80
2023-03-07T23:12:57.578Z,2.92
2023-03-07T23:15:24.752Z,2.80
2023-03-07T23:17:51.721Z,2.80
2023-03-07T23:20:25.346Z,3.05
2023-03-07T23:22:52.932Z,2.60
2023-03-07T23:25:19.880Z,2.33
2023-03-07T23:27:46.582Z,2.60
2023-03-07T23:30:13.735Z,2.60
2023-03-07T23:32:40.444Z,2.95
2023-03-07T23:35:07.482Z,2.85
2023-03-07T23:37:34.209Z,2.72
2023-03-07T23:40:01.490Z,2.83
2023-03-07T23:42:28.275Z,2.80
2023-03-07T23:44:55.146Z,2.40
2023-03-07T23:47:21.880Z,2.70
2023-03-07T23:49:48.566Z,2.70
2023-03-07T23:52:15.253Z,2.70
2023-03-07T23:54:45.036Z,2.72
2023-03-07T23:57:11.751Z,2.40
2023-03-07T23:59:38.454Z,2.83
